createdAt,value
2016-09-16T00:00:04.589Z,99.73
2016-09-16T00:01:04.573Z,98.97
2016-09-16T00:02:04.586Z,99.3
2016-09-16T00:03:04.577Z,99.3
2016-09-16T00:04:04.567Z,99.3
2016-09-16T00:05:04.538Z,99.3
2016-09-16T00:06:04.544Z,99.54
2016-09-16T00:07:04.525Z,99.35
2016-09-16T00:08:04.509Z,99.39
2016-09-16T00:09:04.527Z,99.26
2016-09-16T00:10:04.492Z,99.26
2016-09-16T00:11:04.481Z,99.16
2016-09-16T00:12:04.486Z,99.44
2016-09-16T00:13:04.467Z,99.54
2016-09-16T00:14:04.463Z,98.92
2016-09-16T00:15:04.646Z,99.49
2016-09-16T00:16:04.438Z,99.11
2016-09-16T00:17:04.443Z,99.02
2016-09-16T00:18:04.417Z,99.49
2016-09-16T00:19:04.423Z,99.21
2016-09-16T00:20:04.406Z,99.3
2016-09-16T00:21:04.392Z,99.58
2016-09-16T00:22:04.388Z,99.49
2016-09-16T00:23:04.371Z,98.73
2016-09-16T00:24:04.368Z,98.73
2016-09-16T00:25:04.366Z,99.02
2016-09-16T00:26:04.348Z,98.97
2016-09-16T00:27:04.330Z,99.06
2016-09-16T00:28:04.335Z,98.97
2016-09-16T00:29:04.316Z,99.06
2016-09-16T00:30:04.296Z,99.01
2016-09-16T00:31:04.288Z,99.39
2016-09-16T00:32:04.295Z,99.3
2016-09-16T00:33:04.269Z,99.26
2016-09-16T00:34:04.254Z,99.16
2016-09-16T00:35:04.256Z,99.44
2016-09-16T00:36:04.254Z,99.44
2016-09-16T00:37:04.223Z,99.73
2016-09-16T00:38:04.246Z,99.35
2016-09-16T00:39:04.219Z,99.54
2016-09-16T00:40:04.213Z,99.54
2016-09-16T00:41:04.207Z,99.54
2016-09-16T00:42:04.195Z,99.63
2016-09-16T00:43:04.172Z,99.44
2016-09-16T00:44:04.159Z,99.73
2016-09-16T00:45:04.151Z,99.54
2016-09-16T00:46:04.132Z,99.44
2016-09-16T00:47:04.128Z,99.54
2016-09-16T00:48:04.124Z,99.26
2016-09-16T00:49:04.125Z,99.35
2016-09-16T00:50:04.117Z,99.82
2016-09-16T00:51:04.102Z,99.99
2016-09-16T00:52:04.070Z,99.73
2016-09-16T00:53:04.077Z,99.63
2016-09-16T00:54:04.074Z,99.82
2016-09-16T00:55:04.048Z,99.63
2016-09-16T00:56:04.034Z,99.63
2016-09-16T00:57:04.042Z,99.58
2016-09-16T00:58:04.025Z,99.87
2016-09-16T00:59:04.340Z,99.96
2016-09-16T01:00:03.999Z,99.99
2016-09-16T01:01:03.988Z,99.99
2016-09-16T01:02:03.970Z,99.99
2016-09-16T01:03:03.962Z,99.99
2016-09-16T01:04:03.969Z,99.99
2016-09-16T01:05:03.952Z,99.99
2016-09-16T01:06:03.944Z,99.99
2016-09-16T01:07:03.915Z,99.99
2016-09-16T01:08:03.908Z,99.99
2016-09-16T01:09:03.915Z,99.99
2016-09-16T01:10:03.892Z,99.99
2016-09-16T01:11:03.876Z,99.99
2016-09-16T01:12:03.862Z,99.99
2016-09-16T01:13:03.860Z,99.99
2016-09-16T01:14:03.861Z,99.99
2016-09-16T01:15:03.859Z,99.99
2016-09-16T01:16:03.818Z,99.99
2016-09-16T01:17:03.816Z,99.99
2016-09-16T01:18:03.822Z,99.99
2016-09-16T01:19:03.808Z,99.99
2016-09-16T01:20:03.788Z,99.99
2016-09-16T01:21:03.777Z,99.99
2016-09-16T01:22:03.753Z,99.99
2016-09-16T01:23:03.748Z,99.99
2016-09-16T01:24:03.729Z,99.99
2016-09-16T01:25:03.720Z,99.99
2016-09-16T01:26:03.715Z,99.99
2016-09-16T01:27:03.713Z,99.99
2016-09-16T01:28:03.706Z,99.99
2016-09-16T01:29:03.683Z,99.99
2016-09-16T01:30:03.680Z,99.99
2016-09-16T01:31:03.667Z,99.99
2016-09-16T01:32:03.658Z,99.99
2016-09-16T01:33:03.630Z,99.99
2016-09-16T01:34:03.642Z,99.99
2016-09-16T01:35:03.628Z,99.99
2016-09-16T01:36:03.600Z,99.99
2016-09-16T01:37:03.592Z,99.99
2016-09-16T01:38:03.591Z,99.99
2016-09-16T01:39:03.573Z,99.99
2016-09-16T01:40:03.575Z,99.99
2016-09-16T01:41:03.563Z,99.99
2016-09-16T01:42:03.536Z,99.99
2016-09-16T01:43:03.517Z,99.99
2016-09-16T01:44:03.514Z,99.99
2016-09-16T01:45:03.510Z,99.99
2016-09-16T01:46:03.483Z,99.99
2016-09-16T01:47:03.470Z,99.99
2016-09-16T01:48:03.481Z,99.99
2016-09-16T01:49:03.465Z,99.99
2016-09-16T01:50:03.455Z,99.99
2016-09-16T01:51:03.427Z,99.99
2016-09-16T01:52:03.427Z,99.99
2016-09-16T01:53:03.423Z,99.99
2016-09-16T01:54:03.390Z,99.99
2016-09-16T01:55:03.379Z,99.99
2016-09-16T01:56:03.387Z,99.99
2016-09-16T01:57:03.376Z,99.99
2016-09-16T01:58:03.350Z,99.99
2016-09-16T01:59:03.339Z,99.99
2016-09-16T02:00:03.323Z,99.99
2016-09-16T02:01:03.316Z,99.99
2016-09-16T02:02:03.318Z,99.99
2016-09-16T02:03:03.291Z,99.99
2016-09-16T02:04:03.301Z,99.99
2016-09-16T02:05:03.277Z,99.99
2016-09-16T02:06:03.248Z,99.99
2016-09-16T02:07:03.239Z,99.99
2016-09-16T02:08:03.243Z,99.99
2016-09-16T02:09:03.216Z,99.99
2016-09-16T02:10:03.206Z,99.99
2016-09-16T02:11:03.196Z,99.99
2016-09-16T02:12:03.189Z,99.99
2016-09-16T02:13:03.170Z,99.99
2016-09-16T02:14:03.174Z,99.99
2016-09-16T02:15:03.146Z,99.99
2016-09-16T02:16:03.446Z,99.99
2016-09-16T02:17:03.125Z,99.99
2016-09-16T02:18:03.119Z,99.99
2016-09-16T02:19:03.102Z,99.99
2016-09-16T02:20:03.103Z,99.99
2016-09-16T02:21:03.094Z,99.99
2016-09-16T02:22:03.081Z,99.99
2016-09-16T02:23:03.057Z,99.99
2016-09-16T02:24:03.046Z,99.99
2016-09-16T02:25:03.041Z,99.99
2016-09-16T02:26:03.041Z,99.99
2016-09-16T02:27:03.015Z,99.99
2016-09-16T02:28:03.022Z,99.99
2016-09-16T02:29:03.005Z,99.99
2016-09-16T02:30:02.980Z,99.99
2016-09-16T02:31:02.979Z,99.99
2016-09-16T02:32:02.959Z,99.99
2016-09-16T02:33:02.970Z,99.99
2016-09-16T02:34:03.251Z,99.99
2016-09-16T02:35:02.934Z,99.99
2016-09-16T02:36:02.934Z,99.99
2016-09-16T02:37:02.929Z,99.99
2016-09-16T02:38:02.897Z,99.99
2016-09-16T02:39:02.887Z,99.99
2016-09-16T02:40:02.899Z,99.99
2016-09-16T02:41:02.886Z,99.99
2016-09-16T02:42:02.855Z,99.99
2016-09-16T02:43:02.853Z,99.99
2016-09-16T02:44:02.856Z,99.99
2016-09-16T02:45:02.830Z,99.99
2016-09-16T02:46:02.821Z,99.99
2016-09-16T02:47:02.817Z,99.99
2016-09-16T02:48:02.794Z,99.99
2016-09-16T02:49:02.788Z,99.99
2016-09-16T02:50:02.781Z,99.99
2016-09-16T02:51:02.764Z,99.99
2016-09-16T02:52:02.774Z,99.99
2016-09-16T02:53:02.764Z,99.99
2016-09-16T02:54:02.745Z,99.99
2016-09-16T02:55:02.728Z,99.99
2016-09-16T02:56:02.732Z,99.99
2016-09-16T02:57:02.699Z,99.99
2016-09-16T02:58:02.697Z,99.99
2016-09-16T02:59:02.694Z,99.99
2016-09-16T03:00:02.676Z,99.99
2016-09-16T03:01:02.662Z,99.99
2016-09-16T03:02:02.653Z,99.99
2016-09-16T03:03:02.639Z,99.99
2016-09-16T03:04:02.639Z,99.99
2016-09-16T03:05:02.630Z,99.99
2016-09-16T03:06:02.624Z,99.99
2016-09-16T03:07:02.615Z,99.99
2016-09-16T03:08:02.599Z,99.99
2016-09-16T03:09:02.587Z,99.99
2016-09-16T03:10:02.563Z,99.99
2016-09-16T03:11:02.560Z,99.99
2016-09-16T03:12:02.550Z,99.99
2016-09-16T03:13:02.546Z,99.99
2016-09-16T03:14:02.529Z,99.99
2016-09-16T03:15:02.534Z,99.99
2016-09-16T03:16:02.503Z,99.99
2016-09-16T03:17:02.503Z,99.99
2016-09-16T03:18:02.503Z,99.99
2016-09-16T03:19:02.469Z,99.99
2016-09-16T03:20:02.470Z,99.99
2016-09-16T03:21:02.467Z,99.99
2016-09-16T03:22:02.462Z,99.99
2016-09-16T03:23:02.463Z,99.99
2016-09-16T03:24:02.430Z,99.99
2016-09-16T03:25:02.432Z,99.99
2016-09-16T03:26:02.421Z,99.99
2016-09-16T03:27:02.413Z,99.99
2016-09-16T03:28:02.394Z,99.99
2016-09-16T03:29:02.373Z,99.99
2016-09-16T03:30:02.361Z,99.99
2016-09-16T03:31:02.366Z,99.99
2016-09-16T03:32:02.349Z,99.99
2016-09-16T03:33:02.633Z,99.99
2016-09-16T03:34:02.321Z,99.99
2016-09-16T03:35:02.311Z,99.99
2016-09-16T03:36:02.328Z,99.99
2016-09-16T03:37:02.310Z,99.99
2016-09-16T03:38:02.282Z,99.99
2016-09-16T03:39:02.572Z,99.99
2016-09-16T03:40:02.571Z,99.99
2016-09-16T03:41:02.277Z,99.99
2016-09-16T03:42:02.240Z,99.99
2016-09-16T03:43:02.535Z,99.99
2016-09-16T03:44:02.228Z,99.99
2016-09-16T03:45:02.213Z,99.99
2016-09-16T03:46:02.225Z,99.99
2016-09-16T03:47:02.206Z,99.99
2016-09-16T03:48:02.334Z,99.99
2016-09-16T03:49:02.184Z,99.99
2016-09-16T03:50:02.184Z,99.99
2016-09-16T03:51:02.176Z,99.99
2016-09-16T03:52:02.144Z,99.99
2016-09-16T03:53:02.154Z,99.99
2016-09-16T03:54:02.138Z,99.99
2016-09-16T03:55:02.134Z,99.99
2016-09-16T03:56:02.128Z,99.99
2016-09-16T03:57:02.103Z,99.99
2016-09-16T03:58:02.089Z,99.99
2016-09-16T03:59:02.095Z,99.99
2016-09-16T04:00:02.069Z,99.99
2016-09-16T04:01:02.068Z,99.99
2016-09-16T04:02:02.058Z,99.99
2016-09-16T04:03:02.057Z,99.99
2016-09-16T04:04:02.022Z,99.99
2016-09-16T04:05:02.029Z,99.99
2016-09-16T04:06:02.026Z,99.99
2016-09-16T04:07:02.016Z,99.99
2016-09-16T04:08:02.006Z,99.99
2016-09-16T04:09:02.304Z,99.99
2016-09-16T04:10:01.966Z,99.99
2016-09-16T04:11:01.978Z,99.99
2016-09-16T04:12:01.945Z,99.99
2016-09-16T04:13:01.958Z,99.99
2016-09-16T04:14:01.927Z,99.99
2016-09-16T04:15:01.929Z,99.99
2016-09-16T04:16:01.924Z,99.99
2016-09-16T04:17:01.894Z,99.99
2016-09-16T04:18:01.881Z,99.99
2016-09-16T04:19:01.873Z,99.99
2016-09-16T04:20:01.864Z,99.99
2016-09-16T04:21:01.867Z,99.99
2016-09-16T04:22:01.848Z,99.99
2016-09-16T04:23:01.830Z,99.99
2016-09-16T04:24:01.841Z,99.99
2016-09-16T04:25:01.832Z,99.99
2016-09-16T04:26:01.820Z,99.99
2016-09-16T04:27:01.809Z,99.99
2016-09-16T04:28:01.799Z,99.99
2016-09-16T04:29:01.768Z,99.99
2016-09-16T04:30:01.778Z,99.99
2016-09-16T04:31:01.743Z,99.99
2016-09-16T04:32:01.750Z,99.99
2016-09-16T04:33:01.747Z,99.99
2016-09-16T04:34:01.723Z,99.99
2016-09-16T04:35:01.717Z,99.99
2016-09-16T04:36:01.707Z,99.99
2016-09-16T04:37:01.697Z,99.99
2016-09-16T04:38:01.669Z,99.99
2016-09-16T04:39:01.667Z,99.99
2016-09-16T04:40:01.666Z,99.99
2016-09-16T04:41:01.644Z,99.99
2016-09-16T04:42:01.634Z,99.99
2016-09-16T04:43:01.625Z,99.99
2016-09-16T04:44:01.614Z,99.99
2016-09-16T04:45:01.618Z,99.99
2016-09-16T04:46:01.606Z,99.99
2016-09-16T04:47:01.582Z,99.99
2016-09-16T04:48:01.565Z,99.99
2016-09-16T04:49:01.559Z,99.99
2016-09-16T04:50:01.542Z,99.99
2016-09-16T04:51:01.547Z,99.99
2016-09-16T04:52:01.520Z,99.99
2016-09-16T04:53:01.526Z,99.99
2016-09-16T04:54:01.500Z,99.99
2016-09-16T04:55:01.508Z,99.99
2016-09-16T04:56:01.478Z,99.99
2016-09-16T04:57:01.483Z,99.99
2016-09-16T04:58:01.472Z,99.99
2016-09-16T04:59:01.468Z,99.99
2016-09-16T05:00:01.444Z,99.99
2016-09-16T05:01:01.433Z,99.99
2016-09-16T05:02:01.431Z,99.99
2016-09-16T05:03:01.405Z,99.99
2016-09-16T05:04:01.400Z,99.99
2016-09-16T05:05:01.384Z,99.99
2016-09-16T05:06:01.371Z,99.99
2016-09-16T05:07:01.388Z,99.99
2016-09-16T05:08:01.373Z,99.99
2016-09-16T05:09:01.353Z,99.99
2016-09-16T05:10:01.653Z,99.99
2016-09-16T05:11:01.325Z,99.99
2016-09-16T05:12:01.323Z,99.99
2016-09-16T05:13:01.305Z,99.99
2016-09-16T05:14:01.293Z,99.99
2016-09-16T05:15:01.277Z,99.99
2016-09-16T05:16:01.299Z,99.99
2016-09-16T05:17:01.277Z,99.99
2016-09-16T05:18:01.258Z,99.99
2016-09-16T05:19:01.236Z,99.99
2016-09-16T05:20:01.243Z,99.99
2016-09-16T05:21:01.229Z,99.99
2016-09-16T05:22:01.217Z,99.99
2016-09-16T05:23:01.206Z,99.99
2016-09-16T05:24:01.195Z,99.99
2016-09-16T05:25:01.191Z,99.99
2016-09-16T05:26:01.176Z,99.99
2016-09-16T05:27:01.164Z,99.99
2016-09-16T05:28:01.162Z,99.99
2016-09-16T05:29:01.127Z,99.99
2016-09-16T05:30:01.140Z,99.99
2016-09-16T05:31:01.130Z,99.99
2016-09-16T05:32:01.122Z,99.99
2016-09-16T05:33:01.109Z,99.99
2016-09-16T05:34:01.091Z,99.99
2016-09-16T05:35:01.092Z,99.99
2016-09-16T05:36:01.061Z,99.99
2016-09-16T05:37:01.053Z,99.99
2016-09-16T05:38:01.051Z,99.99
2016-09-16T05:39:01.060Z,99.99
2016-09-16T05:40:01.030Z,99.99
2016-09-16T05:41:01.015Z,99.99
2016-09-16T05:42:01.006Z,99.99
2016-09-16T05:43:00.993Z,99.99
2016-09-16T05:44:00.991Z,99.99
2016-09-16T05:45:00.986Z,99.99
2016-09-16T05:46:00.965Z,99.99
2016-09-16T05:47:00.969Z,99.99
2016-09-16T05:48:00.959Z,99.99
2016-09-16T05:49:00.929Z,99.99
2016-09-16T05:50:00.919Z,99.99
2016-09-16T05:51:00.907Z,99.99
2016-09-16T05:52:00.919Z,99.99
2016-09-16T05:53:00.894Z,99.99
2016-09-16T05:54:00.882Z,99.99
2016-09-16T05:55:00.866Z,99.99
2016-09-16T05:56:00.875Z,99.99
2016-09-16T05:57:00.860Z,99.99
2016-09-16T05:58:00.841Z,99.99
2016-09-16T05:59:00.852Z,99.99
2016-09-16T06:00:00.835Z,99.99
2016-09-16T06:01:00.830Z,99.99
2016-09-16T06:02:00.795Z,99.99
2016-09-16T06:03:00.782Z,99.99
2016-09-16T06:04:00.786Z,99.99
2016-09-16T06:05:00.762Z,99.99
2016-09-16T06:06:00.773Z,99.99
2016-09-16T06:07:00.746Z,99.99
2016-09-16T06:08:00.732Z,99.99
2016-09-16T06:09:00.728Z,99.99
2016-09-16T06:10:00.712Z,99.99
2016-09-16T06:11:00.714Z,99.99
2016-09-16T06:12:00.711Z,99.99
2016-09-16T06:13:00.699Z,99.99
2016-09-16T06:14:00.669Z,99.99
2016-09-16T06:15:00.675Z,99.99
2016-09-16T06:16:00.645Z,99.99
2016-09-16T06:17:00.643Z,99.99
2016-09-16T06:18:00.634Z,99.99
2016-09-16T06:19:00.632Z,99.99
2016-09-16T06:20:00.613Z,99.99
2016-09-16T06:21:00.620Z,99.99
2016-09-16T06:22:00.588Z,99.99
2016-09-16T06:23:00.583Z,99.99
2016-09-16T06:24:00.565Z,99.99
2016-09-16T06:25:00.568Z,99.99
2016-09-16T06:26:00.545Z,99.99
2016-09-16T06:27:00.541Z,99.99
2016-09-16T06:28:00.537Z,99.99
2016-09-16T06:29:00.531Z,99.99
2016-09-16T06:30:00.509Z,99.99
2016-09-16T06:31:00.497Z,99.99
2016-09-16T06:32:00.516Z,99.99
2016-09-16T06:33:00.479Z,99.99
2016-09-16T06:34:00.467Z,99.99
2016-09-16T06:35:00.457Z,99.99
2016-09-16T06:36:00.456Z,99.99
2016-09-16T06:37:00.429Z,99.99
2016-09-16T06:38:00.438Z,99.99
2016-09-16T06:39:00.414Z,99.99
2016-09-16T06:40:00.407Z,99.99
2016-09-16T06:41:00.392Z,99.99
2016-09-16T06:42:00.374Z,99.99
2016-09-16T06:43:00.380Z,99.99
2016-09-16T06:44:00.350Z,99.99
2016-09-16T06:45:00.357Z,99.99
2016-09-16T06:46:00.337Z,99.99
2016-09-16T06:47:00.315Z,99.99
2016-09-16T06:48:00.632Z,99.99
2016-09-16T06:49:00.298Z,99.99
2016-09-16T06:50:00.292Z,99.99
2016-09-16T06:51:00.274Z,99.99
2016-09-16T06:52:00.261Z,99.99
2016-09-16T06:53:00.262Z,99.99
2016-09-16T06:54:00.234Z,99.99
2016-09-16T06:55:00.239Z,99.99
2016-09-16T06:56:00.206Z,99.99
2016-09-16T06:57:00.196Z,99.99
2016-09-16T06:58:00.203Z,99.99
2016-09-16T06:59:00.178Z,99.99
2016-09-16T07:00:00.170Z,99.99
2016-09-16T07:01:00.142Z,99.99
2016-09-16T07:02:00.147Z,99.99
2016-09-16T07:03:00.140Z,99.99
2016-09-16T07:04:00.107Z,99.99
2016-09-16T07:05:00.102Z,99.99
2016-09-16T07:06:00.091Z,99.99
2016-09-16T07:07:00.077Z,99.99
2016-09-16T07:08:00.061Z,99.99
2016-09-16T07:09:00.058Z,99.99
2016-09-16T07:10:00.039Z,99.99
2016-09-16T07:11:00.034Z,99.99
2016-09-16T07:12:00.024Z,99.99
2016-09-16T07:12:59.993Z,99.99
2016-09-16T07:13:59.983Z,99.99
2016-09-16T07:14:59.978Z,99.99
2016-09-16T07:15:59.967Z,99.99
2016-09-16T07:16:59.965Z,99.99
2016-09-16T07:17:59.940Z,99.99
2016-09-16T07:18:59.922Z,99.99
2016-09-16T07:19:59.931Z,99.99
2016-09-16T07:20:59.909Z,99.99
2016-09-16T07:21:59.906Z,99.99
2016-09-16T07:22:59.880Z,99.99
2016-09-16T07:23:59.888Z,99.99
2016-09-16T07:24:59.862Z,99.99
2016-09-16T07:25:59.854Z,99.99
2016-09-16T07:26:59.843Z,99.99
2016-09-16T07:27:59.817Z,99.99
2016-09-16T07:28:59.804Z,99.99
2016-09-16T07:29:59.798Z,99.99
2016-09-16T07:30:59.774Z,99.99
2016-09-16T07:31:59.783Z,99.99
2016-09-16T07:32:59.755Z,99.99
2016-09-16T07:33:59.743Z,99.99
2016-09-16T07:34:59.728Z,99.99
2016-09-16T07:35:59.733Z,99.99
2016-09-16T07:36:59.719Z,99.99
2016-09-16T07:37:59.708Z,99.99
2016-09-16T07:38:59.689Z,99.99
2016-09-16T07:39:59.669Z,99.99
2016-09-16T07:40:59.672Z,99.99
2016-09-16T07:41:59.644Z,99.99
2016-09-16T07:42:59.629Z,99.99
2016-09-16T07:43:59.628Z,99.99
2016-09-16T07:44:59.611Z,99.99
2016-09-16T07:45:59.592Z,99.99
2016-09-16T07:46:59.883Z,99.99
2016-09-16T07:47:59.592Z,99.99
2016-09-16T07:48:59.577Z,99.99
2016-09-16T07:49:59.565Z,99.99
2016-09-16T07:50:59.553Z,99.99
2016-09-16T07:51:59.540Z,99.99
2016-09-16T07:52:59.517Z,99.99
2016-09-16T07:53:59.505Z,99.99
2016-09-16T07:54:59.506Z,99.99
2016-09-16T07:55:59.496Z,99.99
2016-09-16T07:56:59.477Z,99.99
2016-09-16T07:57:59.461Z,99.99
2016-09-16T07:58:59.443Z,99.99
2016-09-16T07:59:59.445Z,99.99
2016-09-16T08:00:59.421Z,99.99
2016-09-16T08:01:59.410Z,99.99
2016-09-16T08:02:59.413Z,99.99
2016-09-16T08:03:59.401Z,99.99
2016-09-16T08:04:59.385Z,99.99
2016-09-16T08:05:59.383Z,99.99
2016-09-16T08:06:59.378Z,99.99
2016-09-16T08:07:59.368Z,99.99
2016-09-16T08:08:59.351Z,99.99
2016-09-16T08:09:59.333Z,99.99
2016-09-16T08:10:59.315Z,99.99
2016-09-16T08:11:59.326Z,99.99
2016-09-16T08:12:59.315Z,99.99
2016-09-16T08:13:59.291Z,99.99
2016-09-16T08:14:59.283Z,99.99
2016-09-16T08:15:59.280Z,99.99
2016-09-16T08:16:59.267Z,99.99
2016-09-16T08:17:59.252Z,99.99
2016-09-16T08:18:59.236Z,99.99
2016-09-16T08:19:59.245Z,99.99
2016-09-16T08:20:59.229Z,99.99
2016-09-16T08:21:59.219Z,99.99
2016-09-16T08:22:59.210Z,99.99
2016-09-16T08:23:59.185Z,99.99
2016-09-16T08:24:59.196Z,99.99
2016-09-16T08:25:59.172Z,99.99
2016-09-16T08:26:59.170Z,99.99
2016-09-16T08:27:59.158Z,99.99
2016-09-16T08:28:59.158Z,99.99
2016-09-16T08:29:59.133Z,99.99
2016-09-16T08:30:59.138Z,99.99
2016-09-16T08:31:59.129Z,99.99
2016-09-16T08:32:59.098Z,99.99
2016-09-16T08:33:59.089Z,99.93
2016-09-16T08:34:59.084Z,99.93
2016-09-16T08:35:59.071Z,99.65
2016-09-16T08:36:59.079Z,99.69
2016-09-16T08:37:59.053Z,99.69
2016-09-16T08:38:59.066Z,99.27
2016-09-16T08:39:59.041Z,99.22
2016-09-16T08:40:59.044Z,99.27
2016-09-16T08:41:59.030Z,99.04
2016-09-16T08:42:59.007Z,98.56
2016-09-16T08:43:59.005Z,98.55
2016-09-16T08:44:59.011Z,98.27
2016-09-16T08:45:58.990Z,98.65
2016-09-16T08:46:58.974Z,98.6
2016-09-16T08:47:58.979Z,98.55
2016-09-16T08:48:58.963Z,98.41
2016-09-16T08:49:58.975Z,98.6
2016-09-16T08:50:58.939Z,98.22
2016-09-16T08:51:58.937Z,97.8
2016-09-16T08:52:58.943Z,98.08
2016-09-16T08:53:58.927Z,97.94
2016-09-16T08:54:58.907Z,97.94
2016-09-16T08:55:58.912Z,98.03
2016-09-16T08:56:58.893Z,97.7
2016-09-16T08:57:58.899Z,97.66
2016-09-16T08:58:58.894Z,97.46
2016-09-16T08:59:58.882Z,96.89
2016-09-16T09:00:58.875Z,97.03
2016-09-16T09:01:58.846Z,97.08
2016-09-16T09:02:58.838Z,96.7
2016-09-16T09:03:58.838Z,97.03
2016-09-16T09:04:58.829Z,96.84
2016-09-16T09:05:58.823Z,96.56
2016-09-16T09:06:58.804Z,96.84
2016-09-16T09:07:58.804Z,96.36
2016-09-16T09:08:58.804Z,96.46
2016-09-16T09:09:58.791Z,96.08
2016-09-16T09:10:58.776Z,96.61
2016-09-16T09:11:58.768Z,95.98
2016-09-16T09:12:58.780Z,96.27
2016-09-16T09:13:58.756Z,95.51
2016-09-16T09:14:58.744Z,96.17
2016-09-16T09:15:58.736Z,95.79
2016-09-16T09:16:58.744Z,95.32
2016-09-16T09:17:58.733Z,95.22
2016-09-16T09:18:58.721Z,95.56
2016-09-16T09:19:58.712Z,95.36
2016-09-16T09:20:58.711Z,94.98
2016-09-16T09:21:58.697Z,95.17
2016-09-16T09:22:58.689Z,94.84
2016-09-16T09:23:58.698Z,94.79
2016-09-16T09:24:58.686Z,94.41
2016-09-16T09:25:58.686Z,94.46
2016-09-16T09:26:58.665Z,93.98
2016-09-16T09:27:58.665Z,94.32
2016-09-16T09:28:58.650Z,94.41
2016-09-16T09:29:58.635Z,94.6
2016-09-16T09:30:58.650Z,94.51
2016-09-16T09:31:58.620Z,94.08
2016-09-16T09:32:58.628Z,93.84
2016-09-16T09:33:58.611Z,93.65
2016-09-16T09:34:58.611Z,93.88
2016-09-16T09:35:58.589Z,93.51
2016-09-16T09:36:58.590Z,93.41
2016-09-16T09:37:58.576Z,93.88
2016-09-16T09:38:58.576Z,93.7
2016-09-16T09:39:58.576Z,93.74
2016-09-16T09:40:58.572Z,93.79
2016-09-16T09:41:58.551Z,93.6
2016-09-16T09:42:58.556Z,93.65
2016-09-16T09:43:58.549Z,93.31
2016-09-16T09:44:58.542Z,93.51
2016-09-16T09:45:58.520Z,92.83
2016-09-16T09:46:58.519Z,93.22
2016-09-16T09:47:58.510Z,93.27
2016-09-16T09:48:58.490Z,92.84
2016-09-16T09:49:58.504Z,93.08
2016-09-16T09:50:58.482Z,92.98
2016-09-16T09:51:58.484Z,93.08
2016-09-16T09:52:58.477Z,92.89
2016-09-16T09:53:58.457Z,93.03
2016-09-16T09:54:58.444Z,92.98
2016-09-16T09:55:58.446Z,93.36
2016-09-16T09:56:58.437Z,93.17
2016-09-16T09:57:58.417Z,92.74
2016-09-16T09:58:58.416Z,92.41
2016-09-16T09:59:58.413Z,92.46
2016-09-16T10:00:58.413Z,92.55
2016-09-16T10:01:58.405Z,92.93
2016-09-16T10:02:58.397Z,92.83
2016-09-16T10:03:58.369Z,92.74
2016-09-16T10:04:58.381Z,92.69
2016-09-16T10:05:58.359Z,92.41
2016-09-16T10:06:58.345Z,92.79
2016-09-16T10:07:58.337Z,92.32
2016-09-16T10:08:58.343Z,92.41
2016-09-16T10:09:58.342Z,92.69
2016-09-16T10:10:58.313Z,92.55
2016-09-16T10:11:58.313Z,92.46
2016-09-16T10:12:58.313Z,92.32
2016-09-16T10:13:58.296Z,92.41
2016-09-16T10:14:58.288Z,92.41
2016-09-16T10:15:58.295Z,92.6
2016-09-16T10:16:58.274Z,92.5
2016-09-16T10:17:58.269Z,92.6
2016-09-16T10:18:58.272Z,92.6
2016-09-16T10:19:58.245Z,92.69
2016-09-16T10:20:58.248Z,92.74
2016-09-16T10:21:58.229Z,92.26
2016-09-16T10:22:58.230Z,92.46
2016-09-16T10:23:58.234Z,92.41
2016-09-16T10:24:58.207Z,92.41
2016-09-16T10:25:58.197Z,92.55
2016-09-16T10:26:58.195Z,92.46
2016-09-16T10:27:58.184Z,92.18
2016-09-16T10:28:58.179Z,92.36
2016-09-16T10:29:58.176Z,92.32
2016-09-16T10:30:58.171Z,92.46
2016-09-16T10:31:58.153Z,92.36
2016-09-16T10:32:58.167Z,92.5
2016-09-16T10:33:58.160Z,92.41
2016-09-16T10:34:58.150Z,92.5
2016-09-16T10:35:58.124Z,92.32
2016-09-16T10:36:58.126Z,92.13
2016-09-16T10:37:58.116Z,92.46
2016-09-16T10:38:58.099Z,92.03
2016-09-16T10:39:58.092Z,92.18
2016-09-16T10:40:58.096Z,92.22
2016-09-16T10:41:58.073Z,92.41
2016-09-16T10:42:58.066Z,92.51
2016-09-16T10:43:58.056Z,92.22
2016-09-16T10:44:58.059Z,92.32
2016-09-16T10:45:58.063Z,92.41
2016-09-16T10:46:58.054Z,92.32
2016-09-16T10:47:58.039Z,92.7
2016-09-16T10:48:58.034Z,92.51
2016-09-16T10:49:58.020Z,92.51
2016-09-16T10:50:57.998Z,92.6
2016-09-16T10:51:58.002Z,92.55
2016-09-16T10:52:57.978Z,92.46
2016-09-16T10:53:57.968Z,92.55
2016-09-16T10:54:57.962Z,92.36
2016-09-16T10:55:57.976Z,92.7
2016-09-16T10:56:57.965Z,92.79
2016-09-16T10:57:57.932Z,92.65
2016-09-16T10:58:57.934Z,92.18
2016-09-16T10:59:57.937Z,92.27
2016-09-16T11:00:57.924Z,92.79
2016-09-16T11:01:57.915Z,92.65
2016-09-16T11:02:57.912Z,92.98
2016-09-16T11:03:57.892Z,92.5
2016-09-16T11:04:57.895Z,92.6
2016-09-16T11:05:57.875Z,92.36
2016-09-16T11:06:57.865Z,92.36
2016-09-16T11:07:57.856Z,92.51
2016-09-16T11:08:57.863Z,92.51
2016-09-16T11:09:57.854Z,92.79
2016-09-16T11:10:57.846Z,92.55
2016-09-16T11:11:57.816Z,93.08
2016-09-16T11:12:57.816Z,92.74
2016-09-16T11:13:57.819Z,92.46
2016-09-16T11:14:57.790Z,92.88
2016-09-16T11:15:57.796Z,92.5
2016-09-16T11:16:57.794Z,92.6
2016-09-16T11:17:57.781Z,92.65
2016-09-16T11:18:57.782Z,92.5
2016-09-16T11:19:57.767Z,92.5
2016-09-16T11:20:57.742Z,92.69
2016-09-16T11:21:57.737Z,92.69
2016-09-16T11:22:57.736Z,92.69
2016-09-16T11:23:57.742Z,92.41
2016-09-16T11:24:57.717Z,92.41
2016-09-16T11:25:57.724Z,92.32
2016-09-16T11:26:57.712Z,92.55
2016-09-16T11:27:57.697Z,92.32
2016-09-16T11:28:57.682Z,92.13
2016-09-16T11:29:57.682Z,92.41
2016-09-16T11:30:57.678Z,92.32
2016-09-16T11:31:57.680Z,92.03
2016-09-16T11:32:57.663Z,92.41
2016-09-16T11:33:57.657Z,92.55
2016-09-16T11:34:57.646Z,92.18
2016-09-16T11:35:57.641Z,92.36
2016-09-16T11:36:57.626Z,92.36
2016-09-16T11:37:57.614Z,92.55
2016-09-16T11:38:57.609Z,92.46
2016-09-16T11:39:57.615Z,92.36
2016-09-16T11:40:57.607Z,92.74
2016-09-16T11:41:57.585Z,92.74
2016-09-16T11:42:57.569Z,92.79
2016-09-16T11:43:57.560Z,92.6
2016-09-16T11:44:57.572Z,92.6
2016-09-16T11:45:57.566Z,92.36
2016-09-16T11:46:57.538Z,92.46
2016-09-16T11:47:57.538Z,92.79
2016-09-16T11:48:57.536Z,92.6
2016-09-16T11:49:57.529Z,92.6
2016-09-16T11:50:57.504Z,92.69
2016-09-16T11:51:57.499Z,92.69
2016-09-16T11:52:57.496Z,92.79
2016-09-16T11:53:57.488Z,92.79
2016-09-16T11:54:57.474Z,92.46
2016-09-16T11:55:57.472Z,92.7
2016-09-16T11:56:57.466Z,92.6
2016-09-16T11:57:57.481Z,92.55
2016-09-16T11:58:57.449Z,92.74
2016-09-16T11:59:57.457Z,92.27
2016-09-16T12:00:57.428Z,92.61
2016-09-16T12:01:57.420Z,92.7
2016-09-16T12:02:57.418Z,92.89
2016-09-16T12:03:57.418Z,92.75
2016-09-16T12:04:57.415Z,92.6
2016-09-16T12:05:57.410Z,92.79
2016-09-16T12:06:57.386Z,92.84
2016-09-16T12:07:57.372Z,92.84
2016-09-16T12:08:57.376Z,92.79
2016-09-16T12:09:57.358Z,92.84
2016-09-16T12:10:57.349Z,92.94
2016-09-16T12:11:57.364Z,92.84
2016-09-16T12:12:57.331Z,93.03
2016-09-16T12:13:57.326Z,92.94
2016-09-16T12:14:57.323Z,93.22
2016-09-16T12:15:57.308Z,93.03
2016-09-16T12:16:57.316Z,92.65
2016-09-16T12:17:57.312Z,92.74
2016-09-16T12:18:57.286Z,92.74
2016-09-16T12:19:57.276Z,92.69
2016-09-16T12:20:57.284Z,92.79
2016-09-16T12:21:57.267Z,92.65
2016-09-16T12:22:57.259Z,93.03
2016-09-16T12:23:57.256Z,92.84
2016-09-16T12:24:57.256Z,93.03
2016-09-16T12:25:57.243Z,92.89
2016-09-16T12:26:57.240Z,92.74
2016-09-16T12:27:57.209Z,92.79
2016-09-16T12:28:57.216Z,93.18
2016-09-16T12:29:57.200Z,92.74
2016-09-16T12:30:57.495Z,93.03
2016-09-16T12:31:57.200Z,93.03
2016-09-16T12:32:57.171Z,92.84
2016-09-16T12:33:57.182Z,93.03
2016-09-16T12:34:57.161Z,93.18
2016-09-16T12:35:57.152Z,93.08
2016-09-16T12:36:57.150Z,92.94
2016-09-16T12:37:57.148Z,92.94
2016-09-16T12:38:57.143Z,92.46
2016-09-16T12:39:57.131Z,93.08
2016-09-16T12:40:57.125Z,93.08
2016-09-16T12:41:57.094Z,93.08
2016-09-16T12:42:57.088Z,93.13
2016-09-16T12:43:57.097Z,93.08
2016-09-16T12:44:57.077Z,92.7
2016-09-16T12:45:57.081Z,92.94
2016-09-16T12:46:57.066Z,93.32
2016-09-16T12:47:57.056Z,93.37
2016-09-16T12:48:57.048Z,93.18
2016-09-16T12:49:57.044Z,93.13
2016-09-16T12:50:57.034Z,93.32
2016-09-16T12:51:57.014Z,93.46
2016-09-16T12:52:57.011Z,93.55